»·PEaware :: N6EN KSLC-KDTA

N6EN :: KSLC-KDTA

FLIGHT INFORMATION

Flight Status: Arrived
Operator: Privately registered:
United States
More flights under this callsign
Pilot: Lamont A. (24221)
Aircraft: Unknown
(EPIC)
More flights by this aircraft type
Origin: KSLC Salt Lake City Intl
United States
Destination: KDTA Delta Mun
United States
More flights between these airports :: More routes between these airports
Route: +
File this flight plan on PilotEdge
Remarks:
Altitude:
(Current/Filed)
0ft
Speed:
(Current/Filed)
0kts
Departed: 28-Jul-19 11:25 AM
Arrived: 28-Jul-19 11:54 AM
Distance/Time
Traveled:
88nm/0:28
Distance/Time
To Go:
Arrived

Flight Plot

Page will automatically refresh every two minutes.

Flight plan parsing failed; only flown route is shown


Map Options




Map Legend


Flown Route
Filed Route
Departure Airport
Arrival Airport
Navaid (VOR, NDB)
Fix

Horizontal Profiles

Position Reports

Time Latitude Longitude Heading Altitude Ground
Speed
28-Jul-19 10:58 40.775648 -111.958739 358 4231ft 0kts
28-Jul-19 10:59 40.775648 -111.958739 358 4231ft 0kts
28-Jul-19 11:00 40.775648 -111.958739 358 4231ft 0kts
28-Jul-19 11:01 40.775648 -111.958739 358 4231ft 0kts
28-Jul-19 11:02 40.775648 -111.958739 358 4231ft 0kts
28-Jul-19 11:03 40.775648 -111.958739 358 4231ft 0kts
28-Jul-19 11:04 40.775648 -111.958739 358 4231ft 0kts
28-Jul-19 11:05 40.775648 -111.958739 358 4231ft 0kts
28-Jul-19 11:06 40.775648 -111.958739 358 4231ft 0kts
28-Jul-19 11:07 40.775648 -111.958739 358 4231ft 0kts
28-Jul-19 11:08 40.775648 -111.958739 358 4231ft 0kts
28-Jul-19 11:09 40.775648 -111.958739 358 4231ft 0kts
28-Jul-19 11:10 40.775648 -111.958739 358 4231ft 0kts
28-Jul-19 11:11 40.775648 -111.958739 358 4231ft 0kts
28-Jul-19 11:12 40.775648 -111.958739 358 4231ft 0kts
28-Jul-19 11:13 40.775648 -111.958739 358 4231ft 0kts
28-Jul-19 11:14 40.775648 -111.958739 358 4231ft 0kts
28-Jul-19 11:15 40.775648 -111.958739 358 4231ft 0kts
28-Jul-19 11:16 40.775648 -111.958739 358 4231ft 0kts
28-Jul-19 11:17 40.775629 -111.959231 271 4231ft 0kts
28-Jul-19 11:18 40.778463 -111.960496 18 4231ft 26kts
28-Jul-19 11:19 40.784529 -111.960082 0 4231ft 24kts
28-Jul-19 11:20 40.791018 -111.960075 352 4231ft 15kts
28-Jul-19 11:21 40.791417 -111.960752 274 4231ft 0kts
28-Jul-19 11:22 40.791417 -111.960752 274 4231ft 0kts
28-Jul-19 11:23 40.790666 -111.962042 181 4231ft 25kts
28-Jul-19 11:24 40.759548 -111.959348 165 5207ft 164kts
28-Jul-19 11:25 40.723166 -111.932319 148 5251ft 160kts
28-Jul-19 11:26 40.686493 -111.907025 166 5247ft 158kts
28-Jul-19 11:27 40.643582 -111.904115 176 5253ft 157kts
28-Jul-19 11:28 40.600440 -111.901119 176 5252ft 157kts
28-Jul-19 11:29 40.557792 -111.898008 176 5252ft 157kts
28-Jul-19 11:30 40.514043 -111.894774 176 5276ft 156kts
28-Jul-19 11:31 40.471579 -111.899149 188 5980ft 177kts
28-Jul-19 11:32 40.419540 -111.909893 186 6893ft 197kts
28-Jul-19 11:33 40.369303 -111.941433 208 7252ft 201kts
28-Jul-19 11:34 40.319543 -111.975102 203 7252ft 199kts
28-Jul-19 11:35 40.267092 -111.991058 188 7252ft 199kts
28-Jul-19 11:37 40.212109 -112.002491 188 7367ft 195kts
28-Jul-19 11:38 40.159390 -112.012534 183 7663ft 191kts
28-Jul-19 11:39 40.111311 -112.022445 204 8162ft 183kts
28-Jul-19 11:40 40.061322 -112.053403 206 10106ft 197kts
28-Jul-19 11:41 40.022119 -112.078246 206 10542ft 247kts
28-Jul-19 11:42 39.958375 -112.118951 207 10196ft 296kts
28-Jul-19 11:43 39.899509 -112.147970 200 9357ft 257kts
28-Jul-19 11:44 39.862766 -112.165379 200 8707ft 245kts
28-Jul-19 11:45 39.825183 -112.183313 201 7902ft 242kts
28-Jul-19 11:46 39.757491 -112.223270 206 7552ft 194kts
28-Jul-19 11:47 39.712486 -112.255390 211 7555ft 179kts
28-Jul-19 11:48 39.663279 -112.292564 210 7559ft 241kts
28-Jul-19 11:49 39.600752 -112.339619 210 7510ft 273kts
28-Jul-19 11:50 39.533777 -112.389889 210 7509ft 282kts
28-Jul-19 11:51 39.465634 -112.440925 210 7500ft 251kts
28-Jul-19 11:52 39.415941 -112.474932 210 5794ft 150kts
28-Jul-19 11:53 39.391251 -112.501647 190 4829ft 87kts
28-Jul-19 11:53 39.378308 -112.502232 185 4762ft 36kts
28-Jul-19 11:55 39.378179 -112.506760 315 4762ft 35kts
28-Jul-19 11:56 39.383664 -112.511927 48 4762ft 18kts
28-Jul-19 11:56 39.385277 -112.512115 38 4762ft 0kts
28-Jul-19 11:58 39.385277 -112.512115 38 4762ft 0kts
28-Jul-19 11:58 39.385277 -112.512115 38 4762ft 0kts
28-Jul-19 11:59 39.385277 -112.512115 38 4762ft 0kts
28-Jul-19 12:01 39.385277 -112.512115 38 4762ft 0kts

Navigation Log

Ident Type
Flight plan parsing failed, navigation log unavailable